createdAt,value
2018-01-14T00:00:33.081Z,15.37
2018-01-14T00:03:01.750Z,16.33
2018-01-14T00:05:30.113Z,15.83
2018-01-14T00:07:58.490Z,16.13
2018-01-14T00:10:26.877Z,15.70
2018-01-14T00:12:55.281Z,15.53
2018-01-14T00:15:23.930Z,15.43
2018-01-14T00:17:52.320Z,17.20
2018-01-14T00:20:20.801Z,15.90
2018-01-14T00:22:49.684Z,14.87
2018-01-14T00:25:18.659Z,15.75
2018-01-14T00:27:47.652Z,16.20
2018-01-14T00:30:16.435Z,15.10
2018-01-14T00:32:44.819Z,15.70
2018-01-14T00:35:13.688Z,14.57
2018-01-14T00:37:42.766Z,15.65
2018-01-14T00:40:11.150Z,14.50
2018-01-14T00:42:39.522Z,11.90
2018-01-14T00:45:08.842Z,13.00
2018-01-14T00:47:38.266Z,12.17
2018-01-14T00:50:06.308Z,12.63
2018-01-14T00:52:35.717Z,14.25
2018-01-14T00:55:03.716Z,13.20
2018-01-14T00:57:32.047Z,14.70
2018-01-14T01:00:01.461Z,15.02
2018-01-14T01:02:29.849Z,15.10
2018-01-14T01:04:59.246Z,14.10
2018-01-14T01:07:27.837Z,15.57
2018-01-14T01:09:55.883Z,14.93
2018-01-14T01:12:24.295Z,13.30
2018-01-14T01:14:52.672Z,14.23
2018-01-14T01:17:21.829Z,10.77
2018-01-14T01:19:50.469Z,10.60
2018-01-14T01:22:19.164Z,10.63
2018-01-14T01:24:47.741Z,10.33
2018-01-14T01:27:16.380Z,12.02
2018-01-14T01:29:44.904Z,15.10
2018-01-14T01:32:13.280Z,14.97
2018-01-14T01:34:41.930Z,13.70
2018-01-14T01:37:10.580Z,14.07
2018-01-14T01:39:39.264Z,17.17
2018-01-14T01:42:07.636Z,16.47
2018-01-14T01:44:36.884Z,16.27
2018-01-14T01:47:05.545Z,15.82
2018-01-14T01:49:33.917Z,15.80
2018-01-14T01:52:03.339Z,13.80
2018-01-14T01:54:31.879Z,15.37
2018-01-14T01:57:01.014Z,12.07
2018-01-14T01:59:29.397Z,10.47
2018-01-14T02:01:57.785Z,11.43
2018-01-14T02:04:26.779Z,9.95
2018-01-14T02:06:55.433Z,9.73
2018-01-14T02:09:23.865Z,11.40
2018-01-14T02:11:52.249Z,10.73
2018-01-14T02:14:21.193Z,8.95
2018-01-14T02:16:49.573Z,9.40
2018-01-14T02:19:19.481Z,8.87
2018-01-14T02:21:49.069Z,8.95
2018-01-14T02:24:18.507Z,7.80
2018-01-14T02:26:47.277Z,8.07
2018-01-14T02:29:15.685Z,11.10
2018-01-14T02:31:44.083Z,12.40
2018-01-14T02:34:12.725Z,13.17
2018-01-14T02:36:41.380Z,14.20
2018-01-14T02:39:09.864Z,13.43
2018-01-14T02:41:38.246Z,14.40
2018-01-14T02:44:06.625Z,14.00
2018-01-14T02:46:36.048Z,13.90
2018-01-14T02:49:04.409Z,13.97
2018-01-14T02:51:32.780Z,15.70
2018-01-14T02:54:02.034Z,14.20
2018-01-14T02:56:30.213Z,13.10
2018-01-14T02:58:58.934Z,12.93
2018-01-14T03:01:27.326Z,13.80
2018-01-14T03:03:55.701Z,11.87
2018-01-14T03:06:24.185Z,11.90
2018-01-14T03:08:53.092Z,13.23
2018-01-14T03:11:22.685Z,13.52
2018-01-14T03:13:51.149Z,11.23
2018-01-14T03:16:20.483Z,12.00
2018-01-14T03:18:49.073Z,12.50
2018-01-14T03:21:17.721Z,13.85
2018-01-14T03:23:46.630Z,12.30
2018-01-14T03:26:16.157Z,11.73
2018-01-14T03:28:44.667Z,9.90
2018-01-14T03:31:13.330Z,8.77
2018-01-14T03:33:41.985Z,11.10
2018-01-14T03:36:10.349Z,12.17
2018-01-14T03:38:39.015Z,12.67
2018-01-14T03:41:07.498Z,13.57
2018-01-14T03:43:36.917Z,12.93
2018-01-14T03:46:06.320Z,13.17
2018-01-14T03:48:34.964Z,11.70
2018-01-14T03:51:03.466Z,12.20
2018-01-14T03:53:32.131Z,11.05
2018-01-14T03:56:00.743Z,13.60
2018-01-14T03:58:29.114Z,13.03
2018-01-14T04:00:57.722Z,11.47
2018-01-14T04:03:26.128Z,11.80
2018-01-14T04:05:55.290Z,12.03
2018-01-14T04:08:23.666Z,12.33
2018-01-14T04:10:52.860Z,11.37
2018-01-14T04:13:21.227Z,11.67
2018-01-14T04:15:51.460Z,10.57
2018-01-14T04:18:19.834Z,11.30
2018-01-14T04:20:48.430Z,11.53
2018-01-14T04:23:17.085Z,9.60
2018-01-14T04:25:46.506Z,13.70
2018-01-14T04:28:14.918Z,13.37
2018-01-14T04:30:43.305Z,13.30
2018-01-14T04:33:11.665Z,14.63
2018-01-14T04:35:40.409Z,15.10
2018-01-14T04:38:09.041Z,14.47
2018-01-14T04:40:38.301Z,14.23
2018-01-14T04:43:06.905Z,14.60
2018-01-14T04:45:35.567Z,14.02
2018-01-14T04:48:03.710Z,14.13
2018-01-14T04:50:32.369Z,14.68
2018-01-14T04:53:01.013Z,13.00
2018-01-14T04:55:30.424Z,13.50
2018-01-14T04:57:59.704Z,13.20
2018-01-14T05:00:28.089Z,13.13
2018-01-14T05:02:57.524Z,14.90
2018-01-14T05:05:26.169Z,14.80
2018-01-14T05:07:55.584Z,13.10
2018-01-14T05:10:23.956Z,13.27
2018-01-14T05:12:52.328Z,13.77
2018-01-14T05:15:20.902Z,14.50
2018-01-14T05:17:49.340Z,14.10
2018-01-14T05:20:17.986Z,14.25
2018-01-14T05:22:46.605Z,14.07
2018-01-14T05:25:15.292Z,16.15
2018-01-14T05:27:43.659Z,16.87
2018-01-14T05:30:12.054Z,15.57
2018-01-14T05:32:40.695Z,16.42
2018-01-14T05:35:08.745Z,14.43
2018-01-14T05:37:38.176Z,13.55
2018-01-14T05:40:06.553Z,14.70
2018-01-14T05:42:34.925Z,15.00
2018-01-14T05:45:04.153Z,17.10
2018-01-14T05:47:32.521Z,16.23
2018-01-14T05:50:00.889Z,14.57
2018-01-14T05:52:29.333Z,15.50
2018-01-14T05:54:57.697Z,12.83
2018-01-14T05:57:26.345Z,13.67
2018-01-14T05:59:55.040Z,13.88
2018-01-14T06:02:23.408Z,14.37
2018-01-14T06:04:51.865Z,14.73
2018-01-14T06:07:20.452Z,14.93
2018-01-14T06:09:49.106Z,15.48
2018-01-14T06:12:17.478Z,14.50
2018-01-14T06:14:46.168Z,12.00
2018-01-14T06:17:14.988Z,13.70
2018-01-14T06:19:43.644Z,15.47
2018-01-14T06:22:12.311Z,18.00
2018-01-14T06:24:40.858Z,15.25
2018-01-14T06:27:09.259Z,17.47
2018-01-14T06:29:37.717Z,18.33
2018-01-14T06:32:06.142Z,17.57
2018-01-14T06:34:34.505Z,18.63
2018-01-14T06:37:02.880Z,16.30
2018-01-14T06:39:31.539Z,15.80
2018-01-14T06:41:59.909Z,18.10
2018-01-14T06:44:28.288Z,16.00
2018-01-14T06:46:56.899Z,16.10
2018-01-14T06:49:26.188Z,18.53
2018-01-14T06:51:55.343Z,18.30
2018-01-14T06:54:23.709Z,19.17
2018-01-14T06:56:52.081Z,18.47
2018-01-14T06:59:20.616Z,16.80
2018-01-14T07:01:49.756Z,16.10
2018-01-14T07:04:18.120Z,17.23
2018-01-14T07:06:46.620Z,18.03
2018-01-14T07:09:15.204Z,16.40
2018-01-14T07:11:43.898Z,18.67
2018-01-14T07:14:12.276Z,16.30
2018-01-14T07:16:40.650Z,18.13
2018-01-14T07:19:09.305Z,17.43
2018-01-14T07:21:37.886Z,16.83
2018-01-14T07:24:06.502Z,15.93
2018-01-14T07:26:35.161Z,17.97
2018-01-14T07:29:03.541Z,16.33
2018-01-14T07:31:31.921Z,16.20
2018-01-14T07:34:01.333Z,15.50
2018-01-14T07:36:29.993Z,15.65
2018-01-14T07:38:59.411Z,15.02
2018-01-14T07:41:27.805Z,16.80
2018-01-14T07:43:56.561Z,17.52
2018-01-14T07:46:25.365Z,18.05
2018-01-14T07:48:53.890Z,17.83
2018-01-14T07:51:23.172Z,18.33
2018-01-14T07:53:52.577Z,18.47
2018-01-14T07:56:21.185Z,16.60
2018-01-14T07:58:49.856Z,16.30
2018-01-14T08:01:19.271Z,15.95
2018-01-14T08:03:48.613Z,16.97
2018-01-14T08:06:17.195Z,15.77
2018-01-14T08:08:45.573Z,15.77
2018-01-14T08:11:14.257Z,15.87
2018-01-14T08:13:42.824Z,17.17
2018-01-14T08:16:11.460Z,16.85
2018-01-14T08:18:39.842Z,16.50
2018-01-14T08:21:08.496Z,16.83
2018-01-14T08:23:36.938Z,15.47
2018-01-14T08:26:05.586Z,16.02
2018-01-14T08:28:33.969Z,16.37
2018-01-14T08:31:02.705Z,19.35
2018-01-14T08:33:32.121Z,20.15
2018-01-14T08:36:00.614Z,19.10
2018-01-14T08:38:29.908Z,20.93
2018-01-14T08:40:58.687Z,17.95
2018-01-14T08:43:27.590Z,19.48
2018-01-14T08:45:55.961Z,20.60
2018-01-14T08:48:24.605Z,19.52
2018-01-14T08:50:53.253Z,20.33
2018-01-14T08:53:21.645Z,20.90
2018-01-14T08:55:50.509Z,20.77
2018-01-14T08:58:19.173Z,20.10
2018-01-14T09:00:47.545Z,18.93
2018-01-14T09:03:16.245Z,18.80
2018-01-14T09:05:45.011Z,17.27
2018-01-14T09:08:13.421Z,18.47
2018-01-14T09:10:41.809Z,18.40
2018-01-14T09:13:10.477Z,18.15
2018-01-14T09:15:38.855Z,19.17
2018-01-14T09:18:07.227Z,20.20
2018-01-14T09:20:35.616Z,19.63
2018-01-14T09:23:04.104Z,19.07
2018-01-14T09:25:32.808Z,18.27
2018-01-14T09:28:01.800Z,19.30
2018-01-14T09:30:41.370Z,18.77
2018-01-14T09:33:10.289Z,18.62
2018-01-14T09:35:38.661Z,19.07
2018-01-14T09:38:07.165Z,20.00
2018-01-14T09:40:36.153Z,19.05
2018-01-14T09:43:04.528Z,20.50
2018-01-14T09:45:33.169Z,20.70
2018-01-14T09:48:01.601Z,19.37
2018-01-14T09:50:29.969Z,20.17
2018-01-14T09:52:58.618Z,21.63
2018-01-14T09:55:27.163Z,20.90
2018-01-14T09:57:55.534Z,19.97
2018-01-14T10:00:23.973Z,20.90
2018-01-14T10:02:53.434Z,19.45
2018-01-14T10:05:22.829Z,18.77
2018-01-14T10:07:52.387Z,18.77
2018-01-14T10:10:20.797Z,18.37
2018-01-14T10:12:49.324Z,16.20
2018-01-14T10:15:17.828Z,16.70
2018-01-14T10:17:46.424Z,15.20
2018-01-14T10:20:15.608Z,15.47
2018-01-14T10:22:44.248Z,14.38
2018-01-14T10:25:14.112Z,15.93
2018-01-14T10:27:42.755Z,14.68
2018-01-14T10:30:11.120Z,13.90
2018-01-14T10:32:39.734Z,14.40
2018-01-14T10:35:08.908Z,14.57
2018-01-14T10:37:37.428Z,11.87
2018-01-14T10:40:06.959Z,16.07
2018-01-14T10:42:35.504Z,14.67
2018-01-14T10:45:03.900Z,15.47
2018-01-14T10:47:32.291Z,16.00
2018-01-14T10:50:00.674Z,14.37
2018-01-14T10:52:29.162Z,15.40
2018-01-14T10:54:57.837Z,17.33
2018-01-14T10:57:26.225Z,16.77
2018-01-14T10:59:54.604Z,17.60
2018-01-14T11:02:22.997Z,14.07
2018-01-14T11:04:52.143Z,14.70
2018-01-14T11:07:20.781Z,15.00
2018-01-14T11:09:49.928Z,14.67
2018-01-14T11:12:18.304Z,15.30
2018-01-14T11:14:46.967Z,14.43
2018-01-14T11:17:16.433Z,13.73
2018-01-14T11:19:45.104Z,12.83
2018-01-14T11:22:13.965Z,11.55
2018-01-14T11:24:42.621Z,11.00
2018-01-14T11:27:11.012Z,12.70
2018-01-14T11:29:40.933Z,11.97
2018-01-14T11:32:09.308Z,12.10
2018-01-14T11:34:39.328Z,11.35
2018-01-14T11:37:07.724Z,11.13
2018-01-14T11:39:36.386Z,10.00
2018-01-14T11:42:05.099Z,11.57
2018-01-14T11:44:33.789Z,11.23
2018-01-14T11:47:02.190Z,11.27
2018-01-14T11:49:31.450Z,10.70
2018-01-14T11:52:00.158Z,10.27
2018-01-14T11:54:29.738Z,10.30
2018-01-14T11:56:58.376Z,9.95
2018-01-14T11:59:26.976Z,8.30
2018-01-14T12:01:55.616Z,10.47
2018-01-14T12:04:25.086Z,9.70
2018-01-14T12:06:53.481Z,10.53
2018-01-14T12:09:21.946Z,10.13
2018-01-14T12:11:50.387Z,9.70
2018-01-14T12:14:19.113Z,10.23
2018-01-14T12:16:47.854Z,9.90
2018-01-14T12:19:16.476Z,11.60
2018-01-14T12:21:44.879Z,11.57
2018-01-14T12:24:13.547Z,12.15
2018-01-14T12:26:42.102Z,13.20
2018-01-14T12:29:10.928Z,13.03
2018-01-14T12:31:40.397Z,12.70
2018-01-14T12:37:12.647Z,11.77
2018-01-14T12:39:41.404Z,13.07
2018-01-14T12:42:10.170Z,14.30
2018-01-14T12:44:38.942Z,11.90
2018-01-14T12:47:07.411Z,11.50
2018-01-14T12:49:38.208Z,11.80
2018-01-14T12:52:07.021Z,11.60
2018-01-14T12:54:36.291Z,12.33
2018-01-14T12:57:04.899Z,11.30
2018-01-14T12:59:34.262Z,12.05
2018-01-14T13:02:02.820Z,11.83
2018-01-14T13:04:32.078Z,10.57
2018-01-14T13:07:01.078Z,11.10
2018-01-14T13:09:29.698Z,10.20
2018-01-14T13:11:58.434Z,10.00
2018-01-14T13:14:27.182Z,10.25
2018-01-14T13:16:56.164Z,9.43
2018-01-14T13:19:24.850Z,11.17
2018-01-14T13:21:53.395Z,9.03
2018-01-14T13:24:21.770Z,8.43
2018-01-14T13:26:50.452Z,10.57
2018-01-14T13:29:19.058Z,8.33
2018-01-14T13:31:48.684Z,9.10
2018-01-14T13:34:17.128Z,9.90
2018-01-14T13:36:45.541Z,8.40
2018-01-14T13:39:15.210Z,8.25
2018-01-14T13:41:43.699Z,8.63
2018-01-14T13:44:13.107Z,7.67
2018-01-14T13:46:41.877Z,8.63
2018-01-14T13:49:11.107Z,8.47
2018-01-14T13:51:39.542Z,8.70
2018-01-14T13:54:08.246Z,7.63
2018-01-14T13:56:36.640Z,8.77
2018-01-14T13:59:06.098Z,8.23
2018-01-14T14:01:34.814Z,7.90
2018-01-14T14:04:03.302Z,8.80
2018-01-14T14:06:32.825Z,8.27
2018-01-14T14:09:01.577Z,8.43
2018-01-14T14:11:30.819Z,7.67
2018-01-14T14:13:59.846Z,7.63
2018-01-14T14:16:29.369Z,7.20
2018-01-14T14:18:58.248Z,8.10
2018-01-14T14:21:27.077Z,7.20
2018-01-14T14:23:56.924Z,8.48
2018-01-14T14:26:25.469Z,9.60
2018-01-14T14:28:53.986Z,10.60
2018-01-14T14:31:22.929Z,10.70
2018-01-14T14:33:51.756Z,10.75
2018-01-14T14:36:20.695Z,12.73
2018-01-14T14:38:49.337Z,11.57
2018-01-14T14:41:18.716Z,11.20
2018-01-14T14:43:48.275Z,10.52
2018-01-14T14:46:17.675Z,11.60
2018-01-14T14:48:47.425Z,10.77
2018-01-14T14:51:17.329Z,11.70
2018-01-14T14:53:46.086Z,11.07
2018-01-14T14:56:15.672Z,9.87
2018-01-14T14:58:45.658Z,12.37
2018-01-14T15:01:14.734Z,11.45
2018-01-14T15:03:43.595Z,11.37
2018-01-14T15:06:12.663Z,10.80
2018-01-14T15:08:41.814Z,11.40
2018-01-14T15:11:11.143Z,11.50
2018-01-14T15:13:40.364Z,11.60
2018-01-14T15:16:10.351Z,12.27
2018-01-14T15:18:39.455Z,12.10
2018-01-14T15:21:09.044Z,12.93
2018-01-14T15:23:37.965Z,13.20
2018-01-14T15:26:07.126Z,11.43
2018-01-14T15:28:36.751Z,11.33
2018-01-14T15:31:05.649Z,13.03
2018-01-14T15:33:34.627Z,11.17
2018-01-14T15:36:03.730Z,10.77
2018-01-14T15:38:32.662Z,11.80
2018-01-14T15:41:01.714Z,12.00
2018-01-14T15:43:32.352Z,12.27
2018-01-14T15:46:01.382Z,10.85
2018-01-14T15:48:31.543Z,11.37
2018-01-14T15:51:00.356Z,11.90
2018-01-14T15:53:29.127Z,12.70
2018-01-14T15:55:58.136Z,12.00
2018-01-14T15:58:27.708Z,13.40
2018-01-14T16:01:00.069Z,11.57
2018-01-14T16:03:29.792Z,12.07
2018-01-14T16:05:58.701Z,12.80
2018-01-14T16:08:27.784Z,12.80
2018-01-14T16:10:58.342Z,12.52
2018-01-14T16:13:35.201Z,13.00
2018-01-14T16:16:04.002Z,12.80
2018-01-14T16:18:32.993Z,12.20
2018-01-14T16:21:07.696Z,11.66
2018-01-14T16:23:37.222Z,12.37
2018-01-14T16:26:06.718Z,11.47
2018-01-14T16:28:35.789Z,11.07
2018-01-14T16:31:05.253Z,13.18
2018-01-14T16:33:35.231Z,12.23
2018-01-14T16:36:05.640Z,12.65
2018-01-14T16:38:35.348Z,11.70
2018-01-14T16:41:05.343Z,11.68
2018-01-14T16:43:34.552Z,13.10
2018-01-14T16:46:03.675Z,12.73
2018-01-14T16:48:33.166Z,12.52
2018-01-14T16:51:02.121Z,13.37
2018-01-14T16:53:32.612Z,12.70
2018-01-14T16:56:01.679Z,12.50
2018-01-14T16:58:30.236Z,13.50
2018-01-14T17:01:09.529Z,12.73
2018-01-14T17:03:38.703Z,11.73
2018-01-14T17:06:07.085Z,12.83
2018-01-14T17:08:35.641Z,12.90
2018-01-14T17:11:04.501Z,12.80
2018-01-14T17:13:35.910Z,12.60
2018-01-14T17:16:05.177Z,12.87
2018-01-14T17:18:33.946Z,11.85
2018-01-14T17:21:03.590Z,12.65
2018-01-14T17:23:33.074Z,13.83
2018-01-14T17:26:04.844Z,13.53
2018-01-14T17:28:33.954Z,14.36
2018-01-14T17:31:04.900Z,11.70
2018-01-14T17:33:36.428Z,12.06
2018-01-14T17:36:05.081Z,13.80
2018-01-14T17:38:33.740Z,13.23
2018-01-14T17:41:11.150Z,13.11
2018-01-14T17:43:39.738Z,14.00
2018-01-14T17:46:13.116Z,13.03
2018-01-14T17:48:42.044Z,13.68
2018-01-14T17:51:11.234Z,11.20
2018-01-14T17:53:39.880Z,12.21
2018-01-14T17:56:09.233Z,12.10
2018-01-14T17:58:40.914Z,12.38
2018-01-14T18:01:09.762Z,11.73
2018-01-14T18:03:45.751Z,11.87
2018-01-14T18:06:14.405Z,13.80
2018-01-14T18:08:43.069Z,12.40
2018-01-14T18:11:16.835Z,11.85
2018-01-14T18:13:45.464Z,15.30
2018-01-14T18:16:21.351Z,13.87
2018-01-14T18:18:49.405Z,14.80
2018-01-14T18:21:17.922Z,12.57
2018-01-14T18:23:49.100Z,11.93
2018-01-14T18:26:17.626Z,10.73
2018-01-14T18:28:50.473Z,13.43
2018-01-14T18:31:18.861Z,12.30
2018-01-14T18:33:49.282Z,12.30
2018-01-14T18:36:17.779Z,11.27
2018-01-14T18:41:51.146Z,13.10
2018-01-14T18:44:23.895Z,11.93
2018-01-14T18:46:52.278Z,11.80
2018-01-14T18:49:20.662Z,12.23
2018-01-14T18:51:49.290Z,11.83
2018-01-14T18:54:23.855Z,12.40
2018-01-14T18:56:53.425Z,12.00
2018-01-14T18:59:22.857Z,11.12
2018-01-14T19:01:55.188Z,13.60
2018-01-14T19:04:23.569Z,14.73
2018-01-14T19:06:56.064Z,14.71
2018-01-14T19:09:24.457Z,14.20
2018-01-14T19:11:52.825Z,14.40
2018-01-14T19:14:22.282Z,14.32
2018-01-14T19:16:52.410Z,14.17
2018-01-14T19:19:26.698Z,13.23
2018-01-14T19:21:55.113Z,13.00
2018-01-14T19:24:27.297Z,12.85
2018-01-14T19:26:56.125Z,11.94
2018-01-14T19:29:26.175Z,11.73
2018-01-14T19:31:56.726Z,14.07
2018-01-14T19:34:26.197Z,10.97
2018-01-14T19:36:59.748Z,12.02
2018-01-14T19:39:28.300Z,10.87
2018-01-14T19:41:57.100Z,11.07
2018-01-14T19:44:29.328Z,10.67
2018-01-14T19:46:58.888Z,14.30
2018-01-14T19:49:27.475Z,13.87
2018-01-14T19:51:58.476Z,14.20
2018-01-14T19:54:26.991Z,12.50
2018-01-14T19:57:00.299Z,11.90
2018-01-14T19:59:30.245Z,12.80
2018-01-14T20:01:59.432Z,10.60
2018-01-14T20:04:36.267Z,12.50
2018-01-14T20:07:05.744Z,11.93
2018-01-14T20:09:34.592Z,12.59
2018-01-14T20:12:03.278Z,13.33
2018-01-14T20:14:32.086Z,12.10
2018-01-14T20:17:02.762Z,13.82
2018-01-14T20:19:32.220Z,12.57
2018-01-14T20:22:06.682Z,14.10
2018-01-14T20:24:35.205Z,13.10
2018-01-14T20:27:03.779Z,13.90
2018-01-14T20:29:32.816Z,12.57
2018-01-14T20:32:03.226Z,13.00
2018-01-14T20:34:33.735Z,14.03
2018-01-14T20:37:06.484Z,14.25
2018-01-14T20:39:35.218Z,13.80
2018-01-14T20:42:10.768Z,13.20
2018-01-14T20:44:44.589Z,13.30
2018-01-14T20:47:12.969Z,13.07
2018-01-14T20:49:41.683Z,13.43
2018-01-14T20:52:12.950Z,12.40
2018-01-14T20:54:44.279Z,13.27
2018-01-14T20:57:12.946Z,12.77
2018-01-14T20:59:41.758Z,13.74
2018-01-14T21:02:16.912Z,15.00
2018-01-14T21:04:45.604Z,15.27
2018-01-14T21:07:14.202Z,13.60
2018-01-14T21:09:42.954Z,14.38
2018-01-14T21:12:12.130Z,13.13
2018-01-14T21:14:41.684Z,14.80
2018-01-14T21:17:11.604Z,13.53
2018-01-14T21:19:41.106Z,14.40
2018-01-14T21:22:11.305Z,13.50
2018-01-14T21:24:44.057Z,13.80
2018-01-14T21:27:16.698Z,14.27
2018-01-14T21:29:46.133Z,15.20
2018-01-14T21:32:14.830Z,13.67
2018-01-14T21:34:43.482Z,13.10
2018-01-14T21:37:12.917Z,14.45
2018-01-14T21:39:41.294Z,13.60
2018-01-14T21:42:09.681Z,13.97
2018-01-14T21:44:38.081Z,13.70
2018-01-14T21:47:06.745Z,14.25
2018-01-14T21:49:35.409Z,14.02
2018-01-14T21:52:04.169Z,15.18
2018-01-14T21:54:32.545Z,13.35
2018-01-14T21:57:01.957Z,14.35
2018-01-14T21:59:31.375Z,13.30
2018-01-14T22:01:59.756Z,13.50
2018-01-14T22:04:28.335Z,15.20
2018-01-14T22:06:56.668Z,13.32
2018-01-14T22:09:26.104Z,14.90
2018-01-14T22:11:54.473Z,13.90
2018-01-14T22:14:22.962Z,13.63
2018-01-14T22:16:51.338Z,13.67
2018-01-14T22:19:19.712Z,14.17
2018-01-14T22:21:48.104Z,14.73
2018-01-14T22:24:16.481Z,13.33
2018-01-14T22:26:44.865Z,12.70
2018-01-14T22:29:13.890Z,13.70
2018-01-14T22:31:42.261Z,13.70
2018-01-14T22:34:11.629Z,14.13
2018-01-14T22:36:40.426Z,11.90
2018-01-14T22:39:09.183Z,13.82
2018-01-14T22:41:38.505Z,14.57
2018-01-14T22:44:07.217Z,14.30
2018-01-14T22:46:35.602Z,13.57
2018-01-14T22:49:04.321Z,12.93
2018-01-14T22:51:32.709Z,14.57
2018-01-14T22:54:01.085Z,15.50
2018-01-14T22:56:29.997Z,14.43
2018-01-14T22:58:58.212Z,14.33
2018-01-14T23:01:26.609Z,15.10
2018-01-14T23:03:55.760Z,14.23
2018-01-14T23:06:24.433Z,15.60
2018-01-14T23:08:53.401Z,14.55
2018-01-14T23:11:21.884Z,14.87
2018-01-14T23:13:51.317Z,14.75
2018-01-14T23:16:19.974Z,16.30
2018-01-14T23:18:49.385Z,14.77
2018-01-14T23:21:18.092Z,16.87
2018-01-14T23:23:46.842Z,16.40
2018-01-14T23:26:15.228Z,16.17
2018-01-14T23:28:43.729Z,16.17
2018-01-14T23:31:12.124Z,14.80
2018-01-14T23:33:41.498Z,15.50
2018-01-14T23:36:10.266Z,15.48
2018-01-14T23:38:38.692Z,15.33
2018-01-14T23:41:07.172Z,16.33
2018-01-14T23:43:35.744Z,16.43
2018-01-14T23:46:04.170Z,16.47
2018-01-14T23:48:32.556Z,16.10
2018-01-14T23:51:01.908Z,15.57
2018-01-14T23:53:30.569Z,15.98
2018-01-14T23:55:58.977Z,15.07
2018-01-14T23:58:27.817Z,15.13
